createdAt,value
2024-02-13T00:03:37.726Z,1.00
2024-02-13T00:08:45.672Z,1.00
2024-02-13T00:13:53.422Z,1.23
2024-02-13T00:19:02.805Z,0.83
2024-02-13T00:24:12.245Z,1.10
2024-02-13T00:29:15.760Z,1.03
2024-02-13T00:34:20.983Z,1.10
2024-02-13T00:39:25.576Z,1.50
2024-02-13T00:44:29.055Z,1.20
2024-02-13T00:49:33.457Z,1.20
2024-02-13T00:54:37.119Z,1.10
2024-02-13T00:59:41.445Z,1.00
2024-02-13T01:04:45.851Z,1.10
2024-02-13T01:09:49.237Z,0.90
2024-02-13T01:14:52.824Z,1.07
2024-02-13T01:19:56.302Z,1.20
2024-02-13T01:25:00.291Z,1.00
2024-02-13T01:30:04.012Z,1.30
2024-02-13T01:35:11.736Z,1.23
2024-02-13T01:40:17.608Z,1.33
2024-02-13T01:45:22.504Z,1.37
2024-02-13T01:50:28.563Z,1.87
2024-02-13T01:55:33.215Z,1.30
2024-02-13T02:00:37.432Z,1.70
2024-02-13T02:05:40.881Z,1.80
2024-02-13T02:10:45.864Z,1.93
2024-02-13T02:15:50.206Z,1.60
2024-02-13T02:20:54.023Z,1.93
2024-02-13T02:25:57.515Z,2.03
2024-02-13T02:31:01.146Z,1.70
2024-02-13T02:36:05.384Z,1.80
2024-02-13T02:41:08.900Z,1.43
2024-02-13T02:46:13.961Z,1.83
2024-02-13T02:51:17.887Z,1.80
2024-02-13T02:56:22.330Z,2.07
2024-02-13T03:01:26.010Z,1.97
2024-02-13T03:06:30.535Z,2.03
2024-02-13T03:11:35.498Z,1.90
2024-02-13T03:16:40.403Z,1.87
2024-02-13T03:21:44.080Z,1.50
2024-02-13T03:26:47.476Z,1.50
2024-02-13T03:31:50.950Z,1.57
2024-02-13T03:36:54.396Z,1.83
2024-02-13T03:41:57.973Z,1.60
2024-02-13T03:47:01.308Z,1.73
2024-02-13T03:52:05.285Z,1.77
2024-02-13T03:57:08.693Z,1.97
2024-02-13T04:02:12.512Z,1.77
2024-02-13T04:07:16.944Z,2.00
2024-02-13T04:12:22.744Z,1.97
2024-02-13T04:17:26.672Z,2.20
2024-02-13T04:22:30.093Z,2.03
2024-02-13T04:27:33.268Z,1.87
2024-02-13T04:32:39.900Z,1.67
2024-02-13T04:37:45.006Z,1.67
2024-02-13T04:42:49.582Z,1.67
2024-02-13T04:47:53.186Z,1.83
2024-02-13T04:52:56.769Z,2.40
2024-02-13T04:58:00.615Z,2.73
2024-02-13T05:03:17.715Z,2.97
2024-02-13T05:08:21.540Z,2.97
2024-02-13T05:13:25.238Z,3.50
2024-02-13T05:18:29.030Z,2.90
2024-02-13T05:23:32.572Z,2.60
2024-02-13T05:28:39.111Z,1.97
2024-02-13T05:33:44.051Z,2.17
2024-02-13T05:38:49.583Z,1.97
2024-02-13T05:43:54.048Z,1.60
2024-02-13T05:49:00.651Z,1.60
2024-02-13T05:54:06.353Z,2.10
2024-02-13T05:59:10.464Z,2.13
2024-02-13T06:04:14.697Z,2.17
2024-02-13T06:09:22.558Z,2.97
2024-02-13T06:14:26.098Z,3.07
2024-02-13T06:19:29.504Z,3.20
2024-02-13T06:24:32.873Z,3.43
2024-02-13T06:29:36.398Z,2.97
2024-02-13T06:34:40.763Z,3.13
2024-02-13T06:39:44.105Z,3.67
2024-02-13T06:44:48.717Z,4.97
2024-02-13T06:49:52.839Z,3.27
2024-02-13T06:54:56.221Z,2.70
2024-02-13T07:00:05.191Z,2.83
2024-02-13T07:05:10.902Z,2.50
2024-02-13T07:10:15.336Z,2.23
2024-02-13T07:15:19.925Z,2.10
2024-02-13T07:20:27.537Z,2.20
2024-02-13T07:25:32.121Z,2.83
2024-02-13T07:30:35.691Z,2.50
2024-02-13T07:35:40.698Z,2.33
2024-02-13T07:40:45.261Z,2.33
2024-02-13T07:45:48.712Z,1.87
2024-02-13T07:50:54.954Z,1.80
2024-02-13T07:55:58.923Z,1.97
2024-02-13T08:01:02.344Z,1.63
2024-02-13T08:06:06.334Z,1.63
2024-02-13T08:11:11.376Z,1.97
2024-02-13T08:16:15.383Z,1.80
2024-02-13T08:21:19.116Z,1.70
2024-02-13T08:26:22.665Z,1.90
2024-02-13T08:31:27.007Z,1.60
2024-02-13T08:36:30.923Z,1.97
2024-02-13T08:41:34.675Z,1.95
2024-02-13T08:46:41.467Z,2.00
2024-02-13T08:51:44.991Z,1.60
2024-02-13T08:56:48.490Z,1.75
2024-02-13T09:01:52.291Z,1.85
2024-02-13T09:06:57.050Z,1.58
2024-02-13T09:12:01.182Z,1.60
2024-02-13T09:17:06.367Z,1.42
2024-02-13T09:22:15.113Z,1.75
2024-02-13T09:27:21.087Z,1.90
2024-02-13T09:32:25.265Z,1.30
2024-02-13T09:37:28.628Z,1.80
2024-02-13T09:42:32.080Z,1.60
2024-02-13T09:47:37.612Z,1.90
2024-02-13T09:52:58.489Z,2.22
2024-02-13T09:58:02.585Z,1.98
2024-02-13T10:03:07.775Z,1.77
2024-02-13T10:08:12.788Z,2.00
2024-02-13T10:13:16.787Z,2.10
2024-02-13T10:18:21.638Z,2.05
2024-02-13T10:23:26.160Z,1.38
2024-02-13T10:28:31.210Z,1.40
2024-02-13T10:33:43.076Z,1.60
2024-02-13T10:38:52.618Z,1.65
2024-02-13T10:43:57.109Z,1.53
2024-02-13T10:49:27.929Z,1.38
2024-02-13T10:54:37.329Z,1.40
2024-02-13T10:59:42.921Z,1.60
2024-02-13T11:04:49.144Z,1.60
2024-02-13T11:09:54.489Z,1.42
2024-02-13T11:15:13.156Z,1.70
2024-02-13T11:20:20.512Z,1.65
2024-02-13T11:25:28.391Z,2.00
2024-02-13T11:30:31.982Z,1.73
2024-02-13T11:35:48.543Z,1.88
2024-02-13T11:40:57.992Z,1.80
2024-02-13T11:46:05.373Z,1.52
2024-02-13T11:51:09.398Z,1.65
2024-02-13T11:56:14.356Z,2.30
2024-02-13T12:01:20.139Z,2.60
2024-02-13T12:06:25.706Z,2.28
2024-02-13T12:11:30.680Z,2.15
2024-02-13T12:16:34.661Z,1.73
2024-02-13T12:21:41.398Z,2.13
2024-02-13T12:26:45.233Z,1.97
2024-02-13T12:31:49.151Z,2.90
2024-02-13T12:36:59.239Z,2.87
2024-02-13T12:42:03.781Z,2.20
2024-02-13T12:47:09.258Z,1.97
2024-02-13T12:52:18.166Z,2.40
2024-02-13T12:57:22.004Z,2.40
2024-02-13T13:02:27.501Z,1.67
2024-02-13T13:07:33.189Z,1.70
2024-02-13T13:12:38.055Z,1.23
2024-02-13T13:17:43.048Z,1.30
2024-02-13T13:22:48.887Z,1.63
2024-02-13T13:27:53.261Z,1.20
2024-02-13T13:32:56.850Z,1.33
2024-02-13T13:38:00.446Z,1.90
2024-02-13T13:43:07.863Z,1.63
2024-02-13T13:48:17.117Z,1.40
2024-02-13T13:53:24.316Z,1.50
2024-02-13T13:58:28.257Z,1.50
2024-02-13T14:03:31.863Z,1.60
2024-02-13T14:08:39.680Z,1.70
2024-02-13T14:13:43.470Z,1.63
2024-02-13T14:18:46.922Z,1.03
2024-02-13T14:23:55.190Z,1.13
2024-02-13T14:28:58.641Z,1.10
2024-02-13T14:34:02.392Z,1.10
2024-02-13T14:39:08.260Z,1.10
2024-02-13T14:44:11.796Z,1.40
2024-02-13T14:49:15.678Z,1.00
2024-02-13T14:54:22.508Z,1.40
2024-02-13T14:59:26.412Z,1.20
2024-02-13T15:04:29.970Z,0.97
2024-02-13T15:09:35.264Z,1.40
2024-02-13T15:14:39.118Z,1.27
2024-02-13T15:19:42.649Z,1.00
2024-02-13T15:24:46.436Z,1.27
2024-02-13T15:29:51.001Z,1.40
2024-02-13T15:34:57.952Z,1.40
2024-02-13T15:40:19.962Z,1.10
2024-02-13T15:45:41.804Z,1.40
2024-02-13T15:50:47.293Z,1.97
2024-02-13T15:55:50.595Z,1.23
2024-02-13T16:00:54.187Z,2.00
2024-02-13T16:05:58.305Z,1.53
2024-02-13T16:11:01.846Z,2.73
2024-02-13T16:16:06.533Z,2.00
2024-02-13T16:21:10.113Z,2.17
2024-02-13T16:26:13.694Z,2.87
2024-02-13T16:31:21.892Z,3.37
2024-02-13T16:36:26.702Z,4.27
2024-02-13T16:41:30.154Z,3.30
2024-02-13T16:46:34.833Z,2.40
2024-02-13T16:51:39.244Z,2.10
2024-02-13T16:56:43.616Z,2.13
2024-02-13T17:01:47.075Z,2.50
2024-02-13T17:06:50.681Z,2.23
2024-02-13T17:12:01.827Z,1.80
2024-02-13T17:17:08.099Z,2.60
2024-02-13T17:22:12.426Z,2.77
2024-02-13T17:27:15.766Z,2.70
2024-02-13T17:32:19.213Z,1.87
2024-02-13T17:37:24.528Z,2.20
2024-02-13T17:42:27.747Z,1.63
2024-02-13T17:47:31.627Z,2.20
2024-02-13T17:52:35.395Z,2.70
2024-02-13T17:57:41.450Z,3.13
2024-02-13T18:02:46.045Z,4.10
2024-02-13T18:07:49.443Z,2.93
2024-02-13T18:12:58.573Z,2.57
2024-02-13T18:18:02.070Z,1.93
2024-02-13T18:23:08.621Z,2.37
2024-02-13T18:28:14.771Z,2.50
2024-02-13T18:33:18.518Z,2.03
2024-02-13T18:38:22.482Z,2.17
2024-02-13T18:43:29.376Z,2.20
2024-02-13T18:48:32.941Z,1.97
2024-02-13T18:53:36.819Z,1.90
2024-02-13T18:58:41.221Z,2.63
2024-02-13T19:03:44.804Z,2.70
2024-02-13T19:08:49.078Z,2.10
2024-02-13T19:13:52.465Z,1.70
2024-02-13T19:18:57.986Z,2.10
2024-02-13T19:24:01.703Z,2.37
2024-02-13T19:29:05.881Z,2.60
2024-02-13T19:34:09.493Z,2.20
2024-02-13T19:39:14.091Z,2.10
2024-02-13T19:44:18.671Z,2.17
2024-02-13T19:49:22.130Z,3.60
2024-02-13T19:54:25.762Z,4.13
2024-02-13T19:59:29.322Z,2.80
2024-02-13T20:04:33.208Z,3.03
2024-02-13T20:09:37.027Z,1.93
2024-02-13T20:14:40.280Z,2.40
2024-02-13T20:19:43.543Z,2.57
2024-02-13T20:24:48.607Z,3.40
2024-02-13T20:29:53.099Z,3.00
2024-02-13T20:34:57.669Z,2.27
2024-02-13T20:40:08.585Z,2.40
2024-02-13T20:45:20.749Z,2.22
2024-02-13T20:50:26.279Z,2.70
2024-02-13T20:55:29.864Z,2.83
2024-02-13T21:00:35.672Z,2.47
2024-02-13T21:05:39.507Z,2.10
2024-02-13T21:10:43.061Z,2.10
2024-02-13T21:15:46.808Z,1.87
2024-02-13T21:21:09.116Z,1.57
2024-02-13T21:26:12.630Z,1.67
2024-02-13T21:31:17.078Z,2.07
2024-02-13T21:36:20.302Z,2.23
2024-02-13T21:41:24.006Z,1.40
2024-02-13T21:46:27.248Z,1.60
2024-02-13T21:51:31.320Z,1.30
2024-02-13T21:56:34.836Z,2.23
2024-02-13T22:01:38.200Z,2.33
2024-02-13T22:06:41.743Z,2.30
2024-02-13T22:11:45.238Z,2.30
2024-02-13T22:16:50.369Z,1.80
2024-02-13T22:21:54.305Z,1.60
2024-02-13T22:26:58.683Z,1.50
2024-02-13T22:32:02.843Z,1.47
2024-02-13T22:37:07.125Z,1.50
2024-02-13T22:42:11.020Z,1.70
2024-02-13T22:47:14.445Z,1.67
2024-02-13T22:52:17.769Z,1.33
2024-02-13T22:57:20.939Z,1.70
2024-02-13T23:02:24.736Z,1.50
2024-02-13T23:07:28.834Z,1.53
2024-02-13T23:12:33.640Z,1.30
2024-02-13T23:17:37.570Z,1.47
2024-02-13T23:22:41.104Z,1.50
2024-02-13T23:27:44.758Z,1.83
2024-02-13T23:32:51.544Z,1.67
2024-02-13T23:37:55.821Z,1.50
2024-02-13T23:43:00.310Z,1.80
2024-02-13T23:48:04.613Z,1.70
2024-02-13T23:53:09.435Z,2.13
2024-02-13T23:58:13.044Z,4.30
